Terminal Aerodrome Forecast
Issued by NWS

Home | Current Version | Previous Version | Text Only | Print | Product List | Glossary On
Versions: 1 2 3 4 5 6 7 8 9 10 11 12 13 14 15 16 17 18 19 20 21 22 23 24 25 26 27 28 29 30
128
FTAK31 PANC 050533
TAFADU
TAF
PADU 050533Z 0506/0606 36015KT P6SM VCSH OVC025
     FM051200 33016G24KT P6SM VCSH SCT015 OVC025
     FM051500 33022G31KT P6SM BKN020=

USA.gov is the U.S. government's official web portal to all federal, state and local government web resources and services.